createdAt,value
2022-10-09T00:00:01.610Z,11.62
2022-10-09T00:15:02.247Z,11.52
2022-10-09T00:30:01.891Z,11.26
2022-10-09T00:45:01.491Z,11.23
2022-10-09T01:00:02.105Z,11.16
2022-10-09T01:15:01.758Z,10.82
2022-10-09T01:30:01.390Z,10.82
2022-10-09T01:45:02.038Z,10.73
2022-10-09T02:00:01.682Z,10.79
2022-10-09T02:15:01.284Z,10.49
2022-10-09T02:30:01.966Z,10.43
2022-10-09T02:45:01.639Z,10.51
2022-10-09T03:00:02.210Z,10.33
2022-10-09T03:15:01.829Z,10.28
2022-10-09T03:30:01.498Z,10.16
2022-10-09T03:45:02.128Z,10.23
2022-10-09T04:00:01.744Z,10.04
2022-10-09T04:15:01.378Z,10.01
2022-10-09T04:30:02.073Z,10.1
2022-10-09T04:45:01.679Z,9.79
2022-10-09T05:00:01.339Z,9.92
2022-10-09T05:15:01.985Z,10.45
2022-10-09T05:30:01.635Z,10.3
2022-10-09T05:45:01.618Z,10.23
2022-10-09T06:00:02.217Z,10.25
2022-10-09T06:15:01.824Z,10.35
2022-10-09T06:30:01.495Z,10.77
2022-10-09T06:45:02.137Z,11.17
2022-10-09T07:00:01.724Z,11.38
2022-10-09T07:15:02.360Z,11.84
2022-10-09T07:30:02.024Z,12.58
2022-10-09T07:45:01.662Z,13.33
2022-10-09T08:00:02.276Z,13.9
2022-10-09T08:15:01.928Z,15.79
2022-10-09T08:30:01.584Z,20.87
2022-10-09T08:45:02.253Z,24.51
2022-10-09T09:00:01.872Z,27.47
2022-10-09T09:15:01.539Z,29.28
2022-10-09T09:30:02.160Z,29.48
2022-10-09T09:45:01.813Z,30.67
2022-10-09T10:00:01.439Z,31.74
2022-10-09T10:15:02.055Z,33.84
2022-10-09T10:30:01.757Z,32.14
2022-10-09T10:45:01.394Z,32.06
2022-10-09T11:00:02.011Z,32.76
2022-10-09T11:15:01.667Z,33.75
2022-10-09T11:30:01.323Z,32.89
2022-10-09T11:45:01.989Z,32.26
2022-10-09T12:00:01.615Z,32.47
2022-10-09T12:15:01.254Z,34.72
2022-10-09T12:30:01.936Z,36.08
2022-10-09T12:45:01.579Z,36.61
2022-10-09T13:00:01.198Z,35.97
2022-10-09T13:15:01.842Z,35.38
2022-10-09T13:30:01.483Z,35.24
2022-10-09T13:45:02.463Z,34.07
2022-10-09T14:00:02.073Z,35.41
2022-10-09T14:15:01.695Z,35.33
2022-10-09T14:30:02.504Z,34.96
2022-10-09T14:45:02.142Z,33.48
2022-10-09T15:00:01.739Z,31.98
2022-10-09T15:15:02.393Z,30.68
2022-10-09T15:30:02.066Z,29.68
2022-10-09T15:45:01.699Z,29.63
2022-10-09T16:00:02.335Z,28.62
2022-10-09T16:15:02.006Z,27.49
2022-10-09T16:30:01.701Z,25.42
2022-10-09T16:45:02.343Z,22.66
2022-10-09T17:00:01.965Z,20.5
2022-10-09T17:15:01.613Z,19.29
2022-10-09T17:30:02.267Z,18.37
2022-10-09T17:45:01.911Z,17.72
2022-10-09T18:00:01.552Z,17.11
2022-10-09T18:15:02.176Z,16.63
2022-10-09T18:30:01.871Z,16.42
2022-10-09T18:45:01.673Z,16.17
2022-10-09T19:00:01.292Z,15.9
2022-10-09T19:15:01.914Z,15.79
2022-10-09T19:30:01.592Z,15.64
2022-10-09T19:45:02.230Z,15.43
2022-10-09T20:00:01.843Z,15.27
2022-10-09T20:15:01.471Z,15.23
2022-10-09T20:30:02.148Z,15.06
2022-10-09T20:45:01.735Z,14.87
2022-10-09T21:00:01.366Z,14.73
2022-10-09T21:15:02.002Z,14.57
2022-10-09T21:30:01.643Z,14.37
2022-10-09T21:45:01.574Z,14.22
2022-10-09T22:00:02.215Z,14.08
2022-10-09T22:15:01.839Z,13.88
2022-10-09T22:30:01.518Z,13.53
2022-10-09T22:45:02.163Z,13.37
2022-10-09T23:00:01.783Z,13.19
2022-10-09T23:15:01.428Z,12.98
2022-10-09T23:30:02.085Z,12.9
2022-10-09T23:45:01.726Z,12.55
